createdAt,value
2022-12-12T00:00:41.311Z,99587.91
2022-12-12T00:03:09.584Z,99591.38
2022-12-12T00:05:37.179Z,99579.47
2022-12-12T00:08:05.044Z,99584.56
2022-12-12T00:10:34.870Z,99586.25
2022-12-12T00:13:02.923Z,99586.47
2022-12-12T00:15:30.564Z,99604.41
2022-12-12T00:17:58.336Z,99606.13
2022-12-12T00:20:26.287Z,99609.63
2022-12-12T00:22:53.848Z,99602.75
2022-12-12T00:25:21.625Z,99613.91
2022-12-12T00:27:49.521Z,99607.94
2022-12-12T00:30:17.241Z,99613.13
2022-12-12T00:32:44.912Z,99596.06
2022-12-12T00:35:12.655Z,99610.56
2022-12-12T00:37:40.435Z,99602.88
2022-12-12T00:40:10.369Z,99613.13
2022-12-12T00:42:37.915Z,99620.09
2022-12-12T00:45:05.836Z,99617.50
2022-12-12T00:47:33.553Z,99607.13
2022-12-12T00:50:01.161Z,99584.00
2022-12-12T00:52:28.669Z,99594.31
2022-12-12T00:54:56.412Z,99596.00
2022-12-12T00:57:24.031Z,99573.75
2022-12-12T00:59:53.068Z,99572.03
2022-12-12T01:02:26.443Z,99589.22
2022-12-12T01:04:55.645Z,99602.91
2022-12-12T01:07:23.590Z,99622.69
2022-12-12T01:09:51.089Z,99632.16
2022-12-12T01:12:18.570Z,99632.06
2022-12-12T01:14:46.331Z,99628.66
2022-12-12T01:17:13.861Z,99629.56
2022-12-12T01:19:41.331Z,99641.63
2022-12-12T01:22:09.986Z,99645.94
2022-12-12T01:24:37.414Z,99628.75
2022-12-12T01:27:04.936Z,99644.16
2022-12-12T01:29:36.095Z,99645.06
2022-12-12T01:32:03.640Z,99648.53
2022-12-12T01:34:31.110Z,99639.09
2022-12-12T01:36:58.869Z,99632.25
2022-12-12T01:39:26.808Z,99633.09
2022-12-12T01:41:54.291Z,99627.13
2022-12-12T01:44:41.316Z,99622.00
2022-12-12T01:47:09.124Z,99633.13
2022-12-12T01:49:36.991Z,99621.94
2022-12-12T01:52:09.376Z,99625.44
2022-12-12T01:54:41.360Z,99620.34
2022-12-12T01:57:12.440Z,99636.53
2022-12-12T01:59:40.649Z,99636.69
2022-12-12T02:02:08.892Z,99635.75
2022-12-12T02:04:36.818Z,99652.97
2022-12-12T02:07:04.460Z,99652.13
2022-12-12T02:09:33.745Z,99665.91
2022-12-12T02:12:01.585Z,99666.88
2022-12-12T02:14:35.266Z,99662.59
2022-12-12T02:17:09.558Z,99656.56
2022-12-12T02:20:13.924Z,99657.37
2022-12-12T02:22:50.375Z,99659.16
2022-12-12T02:25:54.497Z,99658.28
2022-12-12T02:28:40.819Z,99658.31
2022-12-12T02:31:24.914Z,99648.00
2022-12-12T02:34:01.087Z,99631.78
2022-12-12T02:36:43.606Z,99638.66
2022-12-12T02:39:32.800Z,99655.78
2022-12-12T02:42:10.225Z,99645.53
2022-12-12T02:44:52.981Z,99659.28
2022-12-12T02:47:42.859Z,99661.00
2022-12-12T02:50:18.781Z,99661.00
2022-12-12T02:52:47.242Z,99656.72
2022-12-12T02:55:15.887Z,99657.53
2022-12-12T02:57:43.757Z,99664.47
2022-12-12T03:00:17.339Z,99670.44
2022-12-12T03:03:31.844Z,99674.75
2022-12-12T03:06:36.363Z,99687.63
2022-12-12T03:09:41.216Z,99672.16
2022-12-12T03:12:13.381Z,99679.88
2022-12-12T03:14:55.333Z,99686.81
2022-12-12T03:17:31.940Z,99692.00
2022-12-12T03:20:23.439Z,99691.09
2022-12-12T03:23:05.001Z,99695.41
2022-12-12T03:25:37.814Z,99696.22
2022-12-12T03:28:05.409Z,99703.09
2022-12-12T03:30:39.778Z,99699.69
2022-12-12T03:33:16.979Z,99706.56
2022-12-12T03:35:48.281Z,99701.47
2022-12-12T03:38:36.829Z,99712.66
2022-12-12T03:41:07.763Z,99704.91
2022-12-12T03:43:50.365Z,99705.78
2022-12-12T03:46:22.062Z,99714.25
2022-12-12T03:49:04.820Z,99722.91
2022-12-12T03:51:54.357Z,99722.81
2022-12-12T03:54:25.531Z,99728.00
2022-12-12T03:56:57.259Z,99724.53
2022-12-12T03:59:30.782Z,99719.41
2022-12-12T04:02:13.203Z,99725.44
2022-12-12T04:04:46.036Z,99735.78
2022-12-12T04:07:19.801Z,99734.06
2022-12-12T04:10:09.094Z,99733.22
2022-12-12T04:12:58.812Z,99733.13
2022-12-12T04:16:00.136Z,99744.34
2022-12-12T04:18:38.622Z,99752.97
2022-12-12T04:22:03.891Z,99762.47
2022-12-12T04:24:48.798Z,99756.47
2022-12-12T04:27:26.436Z,99763.28
2022-12-12T04:30:11.544Z,99758.13
2022-12-12T04:32:49.766Z,99761.56
2022-12-12T04:35:20.607Z,99765.88
2022-12-12T04:37:52.139Z,99758.13
2022-12-12T04:40:54.995Z,99764.13
2022-12-12T04:43:26.206Z,99773.56
2022-12-12T04:45:56.252Z,99773.56
2022-12-12T04:48:28.767Z,99767.59
2022-12-12T04:50:57.734Z,99769.28
2022-12-12T04:53:32.961Z,99768.41
2022-12-12T04:56:01.685Z,99760.78
2022-12-12T04:58:29.517Z,99779.59
2022-12-12T05:01:30.661Z,99775.34
2022-12-12T05:04:01.580Z,99781.34
2022-12-12T05:06:34.074Z,99773.66
2022-12-12T05:09:03.040Z,99780.44
2022-12-12T05:11:30.646Z,99771.94
2022-12-12T05:13:58.536Z,99781.34
2022-12-12T05:16:33.019Z,99776.25
2022-12-12T05:19:00.801Z,99785.66
2022-12-12T05:21:28.534Z,99789.16
2022-12-12T05:23:56.059Z,99794.25
2022-12-12T05:26:25.878Z,99793.41
2022-12-12T05:28:53.911Z,99790.91
2022-12-12T05:31:21.495Z,99812.31
2022-12-12T05:33:50.089Z,99814.91
2022-12-12T05:36:17.956Z,99813.25
2022-12-12T05:38:45.491Z,99816.63
2022-12-12T05:41:13.545Z,99807.28
2022-12-12T05:43:41.373Z,99818.41
2022-12-12T05:46:08.943Z,99832.97
2022-12-12T05:48:36.705Z,99823.66
2022-12-12T05:51:04.925Z,99843.28
2022-12-12T05:53:34.360Z,99847.53
2022-12-12T05:56:07.175Z,99840.69
2022-12-12T05:58:34.708Z,99857.81
2022-12-12T06:01:04.434Z,99845.88
2022-12-12T06:03:32.865Z,99861.22
2022-12-12T06:06:00.448Z,99857.00
2022-12-12T06:08:28.230Z,99860.41
2022-12-12T06:10:56.894Z,99858.72
2022-12-12T06:13:24.436Z,99861.31
2022-12-12T06:15:51.992Z,99858.72
2022-12-12T06:18:19.880Z,99869.00
2022-12-12T06:20:47.581Z,99870.72
2022-12-12T06:23:15.287Z,99869.81
2022-12-12T06:25:43.144Z,99877.56
2022-12-12T06:28:10.674Z,99880.13
2022-12-12T06:30:38.282Z,99884.38
2022-12-12T06:33:06.231Z,99885.22
2022-12-12T06:35:36.281Z,99892.91
2022-12-12T06:38:04.890Z,99901.53
2022-12-12T06:40:34.123Z,99899.00
2022-12-12T06:43:03.351Z,99908.50
2022-12-12T06:45:32.363Z,99902.47
2022-12-12T06:48:01.752Z,99914.50
2022-12-12T06:50:30.278Z,99914.50
2022-12-12T06:53:20.772Z,99921.38
2022-12-12T06:56:13.949Z,99918.00
2022-12-12T06:58:43.146Z,99921.38
2022-12-12T07:01:14.843Z,99912.81
2022-12-12T07:03:42.901Z,99926.56
2022-12-12T07:06:12.655Z,99920.50
2022-12-12T07:08:41.666Z,99925.63
2022-12-12T07:11:14.017Z,99921.44
2022-12-12T07:13:43.098Z,99934.28
2022-12-12T07:16:15.465Z,99938.59
2022-12-12T07:18:43.430Z,99942.84
2022-12-12T07:21:15.903Z,99944.53
2022-12-12T07:23:44.088Z,99954.00
2022-12-12T07:26:13.948Z,99948.88
2022-12-12T07:28:41.854Z,99958.22
2022-12-12T07:31:13.150Z,99957.41
2022-12-12T07:33:44.510Z,99957.38
2022-12-12T07:36:13.797Z,99961.59
2022-12-12T07:38:43.880Z,99950.47
2022-12-12T07:41:17.141Z,99952.19
2022-12-12T07:43:49.293Z,99972.75
2022-12-12T07:46:20.231Z,99960.72
2022-12-12T07:48:48.662Z,99970.91
2022-12-12T07:51:19.599Z,99986.37
2022-12-12T07:53:47.552Z,99981.19
2022-12-12T07:56:19.250Z,99982.88
2022-12-12T07:58:47.087Z,99984.63
2022-12-12T08:01:20.941Z,99999.28
2022-12-12T08:03:49.278Z,100005.31
2022-12-12T08:06:17.704Z,99998.47
2022-12-12T08:08:46.230Z,99997.62
2022-12-12T08:11:16.185Z,99999.34
2022-12-12T08:13:44.008Z,99991.59
2022-12-12T08:16:26.626Z,99995.94
2022-12-12T08:18:56.153Z,99994.25
2022-12-12T08:21:26.599Z,99991.66
2022-12-12T08:23:59.412Z,100004.44
2022-12-12T08:26:27.983Z,100002.78
2022-12-12T08:28:56.612Z,100014.72
2022-12-12T08:31:25.067Z,100016.37
2022-12-12T08:33:53.448Z,100018.88
2022-12-12T08:36:23.463Z,100022.25
2022-12-12T08:38:52.155Z,100020.50
2022-12-12T08:41:20.014Z,100034.19
2022-12-12T08:43:48.509Z,100029.12
2022-12-12T08:46:18.491Z,100034.16
2022-12-12T08:48:49.525Z,100029.97
2022-12-12T08:51:18.657Z,100031.75
2022-12-12T08:53:48.218Z,100035.16
2022-12-12T08:56:16.823Z,100038.66
2022-12-12T08:58:46.643Z,100044.72
2022-12-12T09:01:19.925Z,100052.44
2022-12-12T09:03:49.316Z,100047.28
2022-12-12T09:06:21.179Z,100036.16
2022-12-12T09:08:55.825Z,100039.59
2022-12-12T09:11:26.490Z,100030.03
2022-12-12T09:14:01.383Z,100029.16
2022-12-12T09:16:31.994Z,100038.62
2022-12-12T09:19:00.017Z,100037.81
2022-12-12T09:21:27.579Z,100040.37
2022-12-12T09:23:55.248Z,100043.75
2022-12-12T09:26:23.060Z,100046.28
2022-12-12T09:28:50.568Z,100045.28
2022-12-12T09:31:18.828Z,100052.94
2022-12-12T09:33:47.220Z,100046.91
2022-12-12T09:36:15.154Z,100051.97
2022-12-12T09:38:43.599Z,100056.12
2022-12-12T09:41:19.261Z,100051.81
2022-12-12T09:44:05.728Z,100060.44
2022-12-12T09:46:35.912Z,100045.75
2022-12-12T09:49:28.062Z,100043.97
2022-12-12T09:51:58.410Z,100047.37
2022-12-12T09:54:27.045Z,100051.72
2022-12-12T09:57:03.851Z,100052.50
2022-12-12T09:59:43.463Z,100053.31
2022-12-12T10:02:48.645Z,100055.84
2022-12-12T10:05:45.090Z,100066.16
2022-12-12T10:08:40.054Z,100043.84
2022-12-12T10:11:30.587Z,100057.44
2022-12-12T10:14:00.780Z,100058.28
2022-12-12T10:16:30.014Z,100066.81
2022-12-12T10:19:07.659Z,100050.44
2022-12-12T10:21:41.019Z,100058.84
2022-12-12T10:24:21.513Z,100063.09
2022-12-12T10:26:49.429Z,100064.84
2022-12-12T10:29:19.360Z,100077.59
2022-12-12T10:32:05.952Z,100063.13
2022-12-12T10:35:04.812Z,100082.03
2022-12-12T10:38:03.098Z,100069.09
2022-12-12T10:40:39.781Z,100066.50
2022-12-12T10:43:18.083Z,100056.91
2022-12-12T10:45:59.123Z,100063.91
2022-12-12T10:48:28.129Z,100059.56
2022-12-12T10:51:00.090Z,100062.94
2022-12-12T10:53:29.450Z,100069.84
2022-12-12T10:56:04.621Z,100070.72
2022-12-12T10:58:42.436Z,100068.84
2022-12-12T11:01:28.173Z,100072.41
2022-12-12T11:04:06.428Z,100073.94
2022-12-12T11:06:40.382Z,100068.75
2022-12-12T11:09:23.118Z,100060.13
2022-12-12T11:12:03.903Z,100061.91
2022-12-12T11:14:34.827Z,100077.22
2022-12-12T11:17:19.013Z,100084.34
2022-12-12T11:19:49.099Z,100070.56
2022-12-12T11:22:17.021Z,100068.06
2022-12-12T11:24:46.679Z,100065.41
2022-12-12T11:27:32.639Z,100069.59
2022-12-12T11:30:26.461Z,100065.38
2022-12-12T11:32:55.539Z,100073.12
2022-12-12T11:35:31.961Z,100071.31
2022-12-12T11:38:04.274Z,100073.03
2022-12-12T11:40:35.554Z,100076.59
2022-12-12T11:43:15.879Z,100062.78
2022-12-12T11:45:58.709Z,100066.19
2022-12-12T11:48:34.531Z,100071.34
2022-12-12T11:54:54.113Z,100063.66
2022-12-12T11:58:04.404Z,100057.41
2022-12-12T12:00:47.191Z,100066.12
2022-12-12T12:03:41.480Z,100045.44
2022-12-12T12:06:33.163Z,100055.00
2022-12-12T12:09:28.348Z,100055.75
2022-12-12T12:12:03.471Z,100042.69
2022-12-12T12:14:51.989Z,100059.88
2022-12-12T12:17:46.679Z,100063.38
2022-12-12T12:27:50.948Z,100047.94
2022-12-12T12:30:24.045Z,100049.53
2022-12-12T12:33:13.953Z,100050.41
2022-12-12T12:36:04.503Z,100057.31
2022-12-12T12:38:56.550Z,100043.63
2022-12-12T12:41:39.235Z,100053.78
2022-12-12T12:44:31.671Z,100049.53
2022-12-12T12:47:18.379Z,100046.03
2022-12-12T12:49:53.890Z,100038.25
2022-12-12T12:52:25.296Z,100040.72
2022-12-12T12:54:56.948Z,100045.06
2022-12-12T12:58:07.179Z,100051.09
2022-12-12T13:01:06.377Z,100048.53
2022-12-12T13:04:11.446Z,100042.62
2022-12-12T13:06:57.054Z,100048.56
2022-12-12T13:09:30.416Z,100044.22
2022-12-12T13:12:43.229Z,100038.34
2022-12-12T13:15:18.341Z,100054.63
2022-12-12T13:18:01.964Z,100049.50
2022-12-12T13:20:38.662Z,100054.59
2022-12-12T13:23:55.237Z,100058.19
2022-12-12T13:26:51.412Z,100064.09
2022-12-12T13:29:32.245Z,100057.13
2022-12-12T13:32:36.676Z,100064.22
2022-12-12T13:35:09.041Z,100064.13
2022-12-12T13:37:44.820Z,100060.69
2022-12-12T13:40:23.041Z,100059.84
2022-12-12T13:43:04.078Z,100073.69
2022-12-12T13:45:40.687Z,100078.00
2022-12-12T13:48:34.782Z,100075.50
2022-12-12T13:51:31.390Z,100085.00
2022-12-12T13:54:12.757Z,100083.22
2022-12-12T13:56:45.441Z,100085.78
2022-12-12T13:59:22.128Z,100073.72
2022-12-12T14:02:11.134Z,100082.25
2022-12-12T14:04:44.002Z,100087.31
2022-12-12T14:07:21.945Z,100089.81
2022-12-12T14:10:41.656Z,100081.09
2022-12-12T14:13:16.427Z,100087.06
2022-12-12T14:15:45.324Z,100090.59
2022-12-12T14:18:22.941Z,100088.00
2022-12-12T14:21:07.423Z,100083.78
2022-12-12T14:23:43.780Z,100086.47
2022-12-12T14:26:23.497Z,100089.06
2022-12-12T14:29:15.853Z,100093.50
2022-12-12T14:31:58.708Z,100095.28
2022-12-12T14:34:53.988Z,100095.34
2022-12-12T14:37:59.035Z,100098.84
2022-12-12T14:40:40.005Z,100103.44
2022-12-12T14:43:18.618Z,100093.19
2022-12-12T14:45:49.699Z,100111.31
2022-12-12T14:48:19.339Z,100107.94
2022-12-12T14:50:51.023Z,100105.50
2022-12-12T14:53:22.898Z,100103.91
2022-12-12T14:55:58.680Z,100105.66
2022-12-12T14:58:29.343Z,100112.63
2022-12-12T15:00:59.815Z,100111.81
2022-12-12T15:03:32.407Z,100117.81
2022-12-12T15:06:37.671Z,100113.53
2022-12-12T15:09:16.899Z,100124.78
2022-12-12T15:11:45.834Z,100121.38
2022-12-12T15:14:25.892Z,100123.16
2022-12-12T15:17:02.352Z,100124.16
2022-12-12T15:19:31.625Z,100143.91
2022-12-12T15:21:59.284Z,100131.87
2022-12-12T15:24:28.977Z,100138.75
2022-12-12T15:26:58.031Z,100143.97
2022-12-12T15:29:28.322Z,100144.91
2022-12-12T15:32:02.205Z,100145.78
2022-12-12T15:34:41.498Z,100142.41
2022-12-12T15:37:10.889Z,100148.50
2022-12-12T15:39:40.831Z,100157.09
2022-12-12T15:42:12.000Z,100159.72
2022-12-12T15:44:46.109Z,100158.06
2022-12-12T15:47:15.244Z,100170.97
2022-12-12T15:49:46.013Z,100167.56
2022-12-12T15:52:25.805Z,100167.62
2022-12-12T15:54:56.045Z,100175.34
2022-12-12T15:57:26.129Z,100165.97
2022-12-12T16:00:00.228Z,100175.34
2022-12-12T16:02:32.493Z,100179.72
2022-12-12T16:05:19.821Z,100183.13
2022-12-12T16:07:47.453Z,100178.84
2022-12-12T16:10:21.622Z,100170.34
2022-12-12T16:13:04.023Z,100181.47
2022-12-12T16:15:38.124Z,100176.37
2022-12-12T16:18:18.302Z,100178.97
2022-12-12T16:20:54.568Z,100174.69
2022-12-12T16:23:30.702Z,100185.00
2022-12-12T16:25:59.382Z,100179.84
2022-12-12T16:28:29.435Z,100179.00
2022-12-12T16:30:59.540Z,100182.41
2022-12-12T16:33:33.156Z,100183.25
2022-12-12T16:36:03.695Z,100184.09
2022-12-12T16:38:31.698Z,100174.66
2022-12-12T16:41:02.986Z,100187.53
2022-12-12T16:43:31.528Z,100186.69
2022-12-12T16:45:59.379Z,100192.69
2022-12-12T16:48:32.592Z,100198.72
2022-12-12T16:51:06.334Z,100207.28
2022-12-12T16:53:35.615Z,100208.94
2022-12-12T16:56:03.965Z,100216.78
2022-12-12T16:58:33.259Z,100215.91
2022-12-12T17:01:01.784Z,100217.63
2022-12-12T17:03:30.583Z,100221.91
2022-12-12T17:05:58.195Z,100215.88
2022-12-12T17:08:26.689Z,100212.38
2022-12-12T17:11:09.686Z,100214.09
2022-12-12T17:13:44.472Z,100217.56
2022-12-12T17:16:12.443Z,100213.25
2022-12-12T17:18:40.291Z,100203.81
2022-12-12T17:21:07.915Z,100211.53
2022-12-12T17:23:35.816Z,100219.28
2022-12-12T17:26:04.804Z,100218.44
2022-12-12T17:28:34.088Z,100221.91
2022-12-12T17:31:02.433Z,100225.34
2022-12-12T17:33:30.544Z,100224.47
2022-12-12T17:36:03.385Z,100226.19
2022-12-12T17:38:31.991Z,100220.16
2022-12-12T17:41:03.253Z,100225.34
2022-12-12T17:43:31.299Z,100224.50
2022-12-12T17:46:01.067Z,100232.25
2022-12-12T17:48:30.593Z,100233.13
2022-12-12T17:51:01.341Z,100239.97
2022-12-12T17:53:33.014Z,100235.69
2022-12-12T17:56:01.205Z,100221.06
2022-12-12T17:58:40.355Z,100230.47
2022-12-12T18:01:20.099Z,100239.97
2022-12-12T18:03:48.573Z,100237.50
2022-12-12T18:06:17.410Z,100235.78
2022-12-12T18:08:45.442Z,100232.31
2022-12-12T18:11:19.247Z,100235.75
2022-12-12T18:13:48.606Z,100245.22
2022-12-12T18:16:18.219Z,100253.84
2022-12-12T18:18:45.928Z,100250.41
2022-12-12T18:21:35.947Z,100249.53
2022-12-12T18:24:04.597Z,100253.84
2022-12-12T18:26:32.305Z,100256.41
2022-12-12T18:29:01.827Z,100259.88
2022-12-12T18:31:30.520Z,100252.12
2022-12-12T18:33:59.125Z,100267.63
2022-12-12T18:36:27.940Z,100266.75
2022-12-12T18:38:56.891Z,100271.94
2022-12-12T18:41:24.461Z,100290.00
2022-12-12T18:43:52.058Z,100290.88
2022-12-12T18:46:21.481Z,100290.03
2022-12-12T18:48:49.227Z,100285.69
2022-12-12T18:51:23.547Z,100289.97
2022-12-12T18:53:53.981Z,100283.09
2022-12-12T18:56:24.164Z,100294.28
2022-12-12T18:58:53.714Z,100291.72
2022-12-12T19:01:24.042Z,100289.16
2022-12-12T19:03:53.734Z,100299.50
2022-12-12T19:06:23.860Z,100308.06
2022-12-12T19:08:53.464Z,100311.53
2022-12-12T19:11:21.740Z,100302.06
2022-12-12T19:13:49.594Z,100314.13
2022-12-12T19:16:18.852Z,100320.09
2022-12-12T19:18:47.439Z,100325.22
2022-12-12T19:21:18.103Z,100321.78
2022-12-12T19:23:46.205Z,100332.13
2022-12-12T19:26:19.770Z,100323.53
2022-12-12T19:28:47.753Z,100332.13
2022-12-12T19:31:16.644Z,100334.72
2022-12-12T19:33:45.127Z,100340.75
2022-12-12T19:36:14.929Z,100334.72
2022-12-12T19:38:43.783Z,100339.88
2022-12-12T19:41:14.142Z,100336.47
2022-12-12T19:43:43.352Z,100345.06
2022-12-12T19:46:15.590Z,100343.34
2022-12-12T19:48:44.160Z,100335.59
2022-12-12T19:51:17.120Z,100337.31
2022-12-12T19:54:00.090Z,100331.31
2022-12-12T19:56:30.355Z,100342.47
2022-12-12T19:58:58.860Z,100343.38
2022-12-12T20:01:31.791Z,100346.78
2022-12-12T20:04:08.686Z,100344.22
2022-12-12T20:06:47.618Z,100354.50
2022-12-12T20:09:18.458Z,100353.66
2022-12-12T20:11:46.742Z,100347.62
2022-12-12T20:14:17.463Z,100355.37
2022-12-12T20:16:45.872Z,100357.09
2022-12-12T20:19:14.660Z,100354.50
2022-12-12T20:22:03.361Z,100365.69
2022-12-12T20:24:33.569Z,100362.22
2022-12-12T20:27:06.354Z,100370.81
2022-12-12T20:29:36.112Z,100375.13
2022-12-12T20:32:04.180Z,100370.81
2022-12-12T20:34:31.993Z,100363.94
2022-12-12T20:37:00.086Z,100362.22
2022-12-12T20:39:27.727Z,100363.97
2022-12-12T20:41:57.080Z,100358.78
2022-12-12T20:44:25.866Z,100369.97
2022-12-12T20:46:53.756Z,100368.22
2022-12-12T20:49:23.956Z,100384.56
2022-12-12T20:51:59.412Z,100379.41
2022-12-12T20:54:28.795Z,100382.81
2022-12-12T20:56:58.360Z,100383.66
2022-12-12T20:59:27.011Z,100387.09
2022-12-12T21:01:54.720Z,100393.94
2022-12-12T21:04:24.086Z,100389.66
2022-12-12T21:06:52.075Z,100390.50
2022-12-12T21:09:24.953Z,100399.94
2022-12-12T21:11:55.927Z,100396.53
2022-12-12T21:14:25.017Z,100399.94
2022-12-12T21:16:52.758Z,100399.06
2022-12-12T21:19:22.815Z,100388.75
2022-12-12T21:21:50.754Z,100396.44
2022-12-12T21:24:18.555Z,100401.59
2022-12-12T21:26:47.470Z,100402.47
2022-12-12T21:29:16.218Z,100405.88
2022-12-12T21:31:50.317Z,100399.03
2022-12-12T21:34:22.214Z,100410.16
2022-12-12T21:36:51.762Z,100412.72
2022-12-12T21:39:22.079Z,100410.09
2022-12-12T21:41:51.229Z,100401.53
2022-12-12T21:44:20.168Z,100402.38
2022-12-12T21:46:47.972Z,100404.06
2022-12-12T21:49:27.800Z,100401.50
2022-12-12T21:51:58.222Z,100395.53
2022-12-12T21:54:26.815Z,100399.81
2022-12-12T21:56:54.570Z,100411.84
2022-12-12T21:59:23.183Z,100409.25
2022-12-12T22:01:51.423Z,100410.09
2022-12-12T22:04:19.177Z,100408.38
2022-12-12T22:06:46.803Z,100403.25
2022-12-12T22:09:14.519Z,100415.25
2022-12-12T22:11:49.002Z,100413.53
2022-12-12T22:14:23.190Z,100422.97
2022-12-12T22:16:50.983Z,100413.53
2022-12-12T22:19:18.508Z,100418.69
2022-12-12T22:21:47.413Z,100420.37
2022-12-12T22:24:16.727Z,100419.50
2022-12-12T22:26:47.086Z,100421.22
2022-12-12T22:29:17.194Z,100419.53
2022-12-12T22:31:45.060Z,100428.09
2022-12-12T22:34:23.643Z,100419.53
2022-12-12T22:36:52.174Z,100422.06
2022-12-12T22:39:23.411Z,100418.62
2022-12-12T22:41:51.961Z,100420.31
2022-12-12T22:44:21.305Z,100418.59
2022-12-12T22:46:50.337Z,100414.31
2022-12-12T22:49:22.510Z,100422.91
2022-12-12T22:51:50.171Z,100428.03
2022-12-12T22:54:18.257Z,100421.97
2022-12-12T22:56:45.882Z,100429.72
2022-12-12T22:59:13.751Z,100428.84
2022-12-12T23:01:41.959Z,100427.13
2022-12-12T23:04:14.560Z,100432.28
2022-12-12T23:06:43.014Z,100438.25
2022-12-12T23:09:26.269Z,100432.25
2022-12-12T23:11:54.961Z,100432.19
2022-12-12T23:14:26.214Z,100428.75
2022-12-12T23:16:54.831Z,100432.16
2022-12-12T23:19:25.918Z,100432.16
2022-12-12T23:21:54.083Z,100430.44
2022-12-12T23:24:21.542Z,100427.81
2022-12-12T23:26:51.180Z,100434.69
2022-12-12T23:29:20.345Z,100429.50
2022-12-12T23:31:48.925Z,100439.75
2022-12-12T23:34:20.903Z,100429.41
2022-12-12T23:36:53.860Z,100431.16
2022-12-12T23:39:22.211Z,100426.84
2022-12-12T23:41:50.007Z,100435.38
2022-12-12T23:44:19.220Z,100433.72
2022-12-12T23:46:46.680Z,100447.41
2022-12-12T23:49:21.901Z,100432.84
2022-12-12T23:51:51.776Z,100437.19
2022-12-12T23:54:23.993Z,100433.72
2022-12-12T23:56:51.735Z,100434.56
2022-12-12T23:59:20.783Z,100437.06
